createdAt,value
2022-10-21T00:00:01.752Z,14.11
2022-10-21T00:05:01.979Z,14.09
2022-10-21T00:10:01.725Z,14.08
2022-10-21T00:15:01.996Z,14.05
2022-10-21T00:20:01.372Z,14.11
2022-10-21T00:25:01.970Z,14.14
2022-10-21T00:30:01.961Z,14.12
2022-10-21T00:35:01.768Z,14.17
2022-10-21T00:40:02.124Z,14.23
2022-10-21T00:45:01.683Z,14.3
2022-10-21T00:50:01.817Z,14.42
2022-10-21T00:55:01.913Z,14.59
2022-10-21T01:00:02.147Z,14.71
2022-10-21T01:05:01.410Z,14.68
2022-10-21T01:10:01.601Z,14.6
2022-10-21T01:15:07.908Z,14.5
2022-10-21T01:20:01.634Z,14.4
2022-10-21T01:25:01.973Z,14.33
2022-10-21T01:30:02.217Z,14.22
2022-10-21T04:22:07.554Z,14.68
2022-10-21T04:22:07.563Z,14.67
2022-10-21T04:25:04.637Z,14.64
2022-10-21T04:30:01.581Z,14.68
2022-10-21T04:35:01.789Z,14.65
2022-10-21T04:40:01.801Z,14.6
2022-10-21T04:45:02.100Z,14.54
2022-10-21T04:50:01.804Z,14.55
2022-10-21T04:55:01.783Z,14.57
2022-10-21T05:00:01.472Z,14.54
2022-10-21T05:05:01.973Z,14.56
2022-10-21T05:10:01.451Z,14.54
2022-10-21T05:15:01.897Z,14.49
2022-10-21T05:20:02.212Z,14.41
2022-10-21T05:25:01.750Z,14.43
2022-10-21T05:30:01.868Z,14.39
2022-10-21T05:35:01.527Z,14.49
2022-10-21T05:40:02.070Z,14.38
2022-10-21T05:45:01.547Z,14.32
2022-10-21T05:50:01.829Z,14.25
2022-10-21T05:55:02.172Z,14.24
2022-10-21T06:00:01.751Z,14.23
2022-10-21T06:05:01.338Z,14.23
2022-10-21T06:10:02.221Z,14.23
2022-10-21T06:15:01.793Z,14.19
2022-10-21T06:20:02.028Z,14.15
2022-10-21T06:25:01.394Z,14.13
2022-10-21T06:30:02.180Z,14.17
2022-10-21T06:35:01.544Z,14.2
2022-10-21T06:40:01.568Z,14.14
2022-10-21T06:45:01.335Z,14.19
2022-10-21T06:50:01.420Z,14.2
2022-10-21T06:55:01.493Z,14.25
2022-10-21T07:00:01.687Z,14.28
2022-10-21T07:05:01.421Z,14.3
2022-10-21T07:10:01.818Z,14.36
2022-10-21T07:15:01.856Z,14.36
2022-10-21T07:20:01.574Z,14.28
2022-10-21T07:25:06.684Z,14.24
2022-10-21T07:30:01.585Z,14.25
2022-10-21T07:35:01.258Z,14.25
2022-10-21T07:40:02.231Z,14.27
2022-10-21T07:45:01.559Z,14.38
2022-10-21T07:50:01.331Z,14.42
2022-10-21T07:55:01.807Z,14.44
2022-10-21T08:00:01.442Z,14.49
2022-10-21T08:05:01.506Z,14.49
2022-10-21T08:10:01.871Z,14.62
2022-10-21T08:15:01.687Z,14.64
2022-10-21T08:20:01.430Z,14.59
2022-10-21T08:25:01.821Z,14.7
2022-10-21T08:30:01.545Z,14.82
2022-10-21T08:35:01.916Z,14.88
2022-10-21T08:40:02.063Z,14.95
2022-10-21T08:45:02.098Z,15.09
2022-10-21T08:50:01.803Z,15.14
2022-10-21T08:55:01.806Z,15.15
2022-10-21T09:00:01.777Z,15.17
2022-10-21T09:05:01.518Z,15.21
2022-10-21T09:10:01.439Z,15.21
2022-10-21T09:15:01.840Z,15.26
2022-10-21T09:20:02.031Z,15.21
2022-10-21T09:25:02.078Z,15.18
2022-10-21T09:30:01.465Z,15.14
2022-10-21T09:35:01.668Z,15.12
2022-10-21T09:40:01.650Z,15.08
2022-10-21T09:45:01.885Z,15.13
2022-10-21T09:50:07.456Z,15.13
2022-10-21T09:55:01.668Z,15.1
2022-10-21T10:00:01.609Z,15.1
2022-10-21T10:05:01.708Z,14.99
2022-10-21T10:10:01.640Z,15.01
2022-10-21T10:15:01.944Z,15.06
2022-10-21T10:20:02.305Z,15.03
2022-10-21T10:25:01.491Z,15.01
2022-10-21T10:30:01.391Z,15.08
2022-10-21T10:35:01.974Z,15.11
2022-10-21T10:40:01.587Z,15.16
2022-10-21T10:45:02.262Z,15.25
2022-10-21T10:50:02.239Z,15.28
2022-10-21T10:55:01.871Z,15.32
2022-10-21T11:00:01.536Z,15.41
2022-10-21T11:05:02.042Z,15.51
2022-10-21T11:10:01.652Z,15.51
2022-10-21T11:15:02.245Z,15.59
2022-10-21T11:20:01.725Z,15.73
2022-10-21T11:25:02.223Z,15.89
2022-10-21T11:30:01.837Z,16.06
2022-10-21T11:35:01.452Z,16.14
2022-10-21T11:40:01.357Z,16.13
2022-10-21T11:45:01.769Z,16.29
2022-10-21T11:50:02.158Z,16.56
2022-10-21T11:55:10.000Z,16.79
2022-10-21T12:00:01.714Z,16.96
2022-10-21T12:05:02.041Z,17.21
2022-10-21T12:10:01.360Z,17.16
2022-10-21T12:15:01.527Z,17.09
2022-10-21T12:20:01.292Z,17.08
2022-10-21T12:25:01.405Z,17.16
2022-10-21T12:30:01.819Z,17.15
2022-10-21T12:35:02.096Z,17.15
2022-10-21T12:40:01.404Z,17.21
2022-10-21T12:45:01.941Z,17.33
2022-10-21T12:50:01.235Z,17.41
2022-10-21T12:55:01.935Z,17.41
2022-10-21T13:00:01.834Z,17.38
2022-10-21T13:05:02.172Z,17.51
2022-10-21T13:10:02.153Z,17.69
2022-10-21T13:15:02.223Z,17.87
2022-10-21T13:20:01.953Z,17.93
2022-10-21T13:25:01.549Z,17.96
2022-10-21T13:30:01.701Z,18.09
2022-10-21T13:35:01.287Z,18.18
2022-10-21T13:40:01.866Z,18.24
2022-10-21T13:45:01.478Z,18.36
2022-10-21T13:50:01.548Z,18.39
2022-10-21T13:55:01.757Z,18.35
2022-10-21T14:00:01.485Z,18.36
2022-10-21T14:05:01.589Z,18.34
2022-10-21T14:10:01.526Z,18.15
2022-10-21T14:15:02.248Z,18.05
2022-10-21T14:20:01.658Z,18.09
2022-10-21T14:25:01.726Z,18.11
2022-10-21T14:30:01.461Z,18.09
2022-10-21T14:35:01.594Z,18.07
2022-10-21T14:40:01.338Z,17.99
2022-10-21T14:45:01.663Z,17.99
2022-10-21T14:50:01.361Z,17.96
2022-10-21T14:55:01.364Z,17.88
2022-10-21T15:00:01.628Z,17.82
2022-10-21T15:05:01.657Z,17.77
2022-10-21T15:10:02.047Z,17.67
2022-10-21T15:15:01.510Z,17.54
2022-10-21T15:20:01.702Z,17.41
2022-10-21T15:25:01.291Z,17.28
2022-10-21T15:30:01.538Z,17.17
2022-10-21T15:35:02.010Z,17.19
2022-10-21T15:40:02.092Z,17.26
2022-10-21T15:45:01.771Z,17.26
2022-10-21T15:50:01.474Z,17.23
2022-10-21T15:55:01.907Z,17.17
2022-10-21T16:00:01.685Z,17.1
2022-10-21T16:05:01.439Z,17.06
2022-10-21T16:10:02.125Z,17
2022-10-21T16:15:01.737Z,16.96
2022-10-21T16:20:01.547Z,16.95
2022-10-21T16:25:02.254Z,16.92
2022-10-21T16:30:01.729Z,16.78
2022-10-21T16:35:01.427Z,16.67
2022-10-21T16:40:02.140Z,16.57
2022-10-21T16:45:01.689Z,16.4
2022-10-21T16:50:01.655Z,16.22
2022-10-21T16:55:02.265Z,16.16
2022-10-21T17:00:01.595Z,16.08
2022-10-21T17:05:02.092Z,16
2022-10-21T17:10:02.210Z,15.92
2022-10-21T17:15:01.799Z,15.77
2022-10-21T17:20:02.074Z,15.84
2022-10-21T17:25:02.456Z,15.75
2022-10-21T17:30:01.948Z,15.7
2022-10-21T17:35:01.392Z,15.84
2022-10-21T17:40:01.858Z,15.62
2022-10-21T17:45:03.783Z,15.66
2022-10-21T17:50:01.542Z,15.72
2022-10-21T17:55:01.452Z,15.9
2022-10-21T18:00:07.433Z,15.76
2022-10-21T18:05:01.462Z,15.91
2022-10-21T18:10:01.343Z,15.67
2022-10-21T18:15:01.451Z,15.73
2022-10-21T18:20:02.333Z,15.49
2022-10-21T18:25:01.382Z,15.65
2022-10-21T18:30:02.256Z,15.47
2022-10-21T18:35:01.495Z,15.4
2022-10-21T18:40:02.329Z,15.41
2022-10-21T18:45:01.449Z,15.39
2022-10-21T18:50:02.224Z,15.48
2022-10-21T18:55:01.851Z,15.48
2022-10-21T19:00:02.057Z,15.29
2022-10-21T19:05:02.680Z,15.21
2022-10-21T19:10:01.340Z,15.11
2022-10-21T19:15:02.121Z,15.11
2022-10-21T19:20:02.361Z,15.16
2022-10-21T19:25:01.560Z,15.17
2022-10-21T19:30:01.520Z,15.07
2022-10-21T19:35:01.607Z,15.06
2022-10-21T19:40:01.644Z,15
2022-10-21T19:45:02.842Z,15.06
2022-10-21T19:50:06.788Z,15.13
2022-10-21T19:55:02.110Z,15.18
2022-10-21T20:00:02.182Z,15.31
2022-10-21T20:05:01.687Z,15.21
2022-10-21T20:10:01.741Z,15.22
2022-10-21T20:15:01.683Z,15.18
2022-10-21T20:20:02.102Z,15.23
2022-10-21T20:25:01.496Z,15.27
2022-10-21T20:30:01.623Z,15.37
2022-10-21T20:35:02.143Z,15.29
2022-10-21T20:40:01.466Z,15.16
2022-10-21T20:45:02.095Z,15.07
2022-10-21T20:50:01.930Z,15.03
2022-10-21T20:55:02.266Z,14.99
2022-10-21T21:00:01.400Z,14.97
2022-10-21T21:05:01.504Z,15
2022-10-21T21:10:03.351Z,15.02
2022-10-21T21:15:01.504Z,15.07
2022-10-21T21:20:01.832Z,15.13
2022-10-21T21:25:01.802Z,15.23
2022-10-21T21:30:07.268Z,15.21
2022-10-21T21:35:05.043Z,15.23
2022-10-21T21:40:01.840Z,15.24
2022-10-21T21:45:01.552Z,15.23
2022-10-21T21:50:01.907Z,15.22
2022-10-21T21:55:02.251Z,15.22
2022-10-21T22:00:01.706Z,15.25
2022-10-21T22:05:01.780Z,15.24
2022-10-21T22:10:01.427Z,15.23
2022-10-21T22:15:01.653Z,15.24
2022-10-21T22:20:01.782Z,15.21
2022-10-21T22:25:01.751Z,15.21
2022-10-21T22:30:02.008Z,15.25
2022-10-21T22:35:02.023Z,15.23
2022-10-21T22:40:01.865Z,15.18
2022-10-21T22:45:02.182Z,15.17
2022-10-21T22:50:01.403Z,15.13
2022-10-21T22:55:01.517Z,15.11
2022-10-21T23:00:02.150Z,15.03
2022-10-21T23:05:02.180Z,15.01
2022-10-21T23:10:01.726Z,14.95
2022-10-21T23:15:01.615Z,14.93
2022-10-21T23:20:02.076Z,14.93
2022-10-21T23:25:02.506Z,14.91
2022-10-21T23:30:02.257Z,14.92
2022-10-21T23:35:01.413Z,14.92
2022-10-21T23:40:02.490Z,14.88
2022-10-21T23:45:02.183Z,14.92
2022-10-21T23:50:01.644Z,14.99
2022-10-21T23:55:01.967Z,15.03
